createdAt,value
2018-08-23T00:02:02.206Z,20.40
2018-08-23T00:05:56.964Z,20.30
2018-08-23T00:09:52.515Z,20.20
2018-08-23T00:13:46.643Z,20.20
2018-08-23T00:17:47.226Z,20.20
2018-08-23T00:21:42.902Z,20.00
2018-08-23T00:25:37.477Z,20.00
2018-08-23T00:29:33.146Z,19.90
2018-08-23T00:33:27.301Z,19.80
2018-08-23T00:37:21.245Z,19.70
2018-08-23T00:41:15.196Z,19.80
2018-08-23T00:45:16.546Z,19.90
2018-08-23T00:49:10.550Z,19.90
2018-08-23T00:53:04.586Z,19.70
2018-08-23T00:56:59.488Z,19.60
2018-08-23T01:00:57.714Z,19.50
2018-08-23T01:04:51.712Z,19.60
2018-08-23T01:08:45.648Z,19.50
2018-08-23T01:12:51.034Z,19.40
2018-08-23T01:16:56.024Z,19.40
2018-08-23T01:20:51.760Z,19.30
2018-08-23T01:24:47.955Z,19.30
2018-08-23T01:28:41.976Z,19.30
2018-08-23T01:32:35.951Z,19.30
2018-08-23T01:36:33.063Z,19.30
2018-08-23T01:40:27.034Z,19.30
2018-08-23T01:44:21.815Z,19.30
2018-08-23T01:48:15.766Z,19.40
2018-08-23T01:52:09.745Z,19.40
2018-08-23T01:56:03.748Z,19.30
2018-08-23T01:59:57.728Z,19.20
2018-08-23T02:03:51.718Z,19.10
2018-08-23T02:07:45.650Z,19.10
2018-08-23T02:11:39.697Z,19.00
2018-08-23T02:15:41.867Z,19.00
2018-08-23T02:19:42.841Z,18.90
2018-08-23T02:23:47.468Z,18.90
2018-08-23T02:28:04.517Z,18.90
2018-08-23T02:31:58.421Z,18.80
2018-08-23T02:36:22.424Z,18.80
2018-08-23T02:40:16.334Z,18.70
2018-08-23T02:44:10.331Z,18.70
2018-08-23T02:48:04.922Z,18.60
2018-08-23T02:51:58.868Z,18.50
2018-08-23T02:55:53.659Z,18.50
2018-08-23T02:59:47.633Z,18.40
2018-08-23T03:03:52.675Z,18.40
2018-08-23T03:07:46.727Z,18.40
2018-08-23T03:11:40.696Z,18.40
2018-08-23T03:15:34.698Z,18.40
2018-08-23T03:19:28.674Z,18.40
2018-08-23T03:23:22.646Z,18.50
2018-08-23T03:27:16.619Z,18.60
2018-08-23T03:31:10.551Z,18.60
2018-08-23T03:35:04.482Z,18.60
2018-08-23T03:38:58.486Z,18.50
2018-08-23T03:42:52.496Z,18.40
2018-08-23T03:46:56.009Z,18.40
2018-08-23T03:50:52.508Z,18.30
2018-08-23T03:55:01.506Z,18.20
2018-08-23T03:58:55.507Z,18.10
2018-08-23T04:02:49.488Z,18.20
2018-08-23T04:06:43.520Z,18.20
2018-08-23T04:10:37.478Z,18.20
2018-08-23T04:14:31.415Z,18.20
2018-08-23T04:18:25.401Z,18.20
2018-08-23T04:22:19.407Z,18.20
2018-08-23T04:26:13.435Z,18.20
2018-08-23T04:30:07.977Z,18.20
2018-08-23T04:34:05.238Z,18.20
2018-08-23T04:37:59.154Z,18.30
2018-08-23T04:41:59.385Z,18.20
2018-08-23T04:45:53.346Z,18.20
2018-08-23T04:49:47.440Z,18.20
2018-08-23T04:53:41.501Z,18.40
2018-08-23T04:57:35.499Z,18.50
2018-08-23T05:01:29.465Z,18.60
2018-08-23T05:05:23.440Z,18.60
2018-08-23T05:09:17.427Z,18.70
2018-08-23T05:13:11.438Z,18.70
2018-08-23T05:17:05.379Z,18.80
2018-08-23T05:20:59.389Z,18.90
2018-08-23T05:24:54.813Z,19.00
2018-08-23T05:29:01.031Z,19.00
2018-08-23T05:32:59.325Z,19.10
2018-08-23T05:36:53.282Z,19.30
2018-08-23T05:40:53.439Z,19.20
2018-08-23T05:44:47.481Z,19.30
2018-08-23T05:48:41.458Z,19.40
2018-08-23T05:52:35.475Z,19.50
2018-08-23T05:56:29.444Z,19.60
2018-08-23T06:00:23.419Z,19.70
2018-08-23T06:04:18.344Z,19.80
2018-08-23T06:08:12.614Z,19.90
2018-08-23T06:12:06.781Z,20.00
2018-08-23T06:16:00.754Z,20.20
2018-08-23T06:19:54.899Z,20.20
2018-08-23T06:24:00.103Z,20.40
2018-08-23T06:27:54.916Z,20.50
2018-08-23T06:31:55.303Z,20.60
2018-08-23T06:35:49.400Z,20.70
2018-08-23T06:39:43.727Z,20.80
2018-08-23T06:43:37.722Z,20.90
2018-08-23T06:47:31.690Z,21.10
2018-08-23T06:51:25.662Z,21.20
2018-08-23T06:55:27.790Z,21.30
2018-08-23T06:59:21.843Z,21.30
2018-08-23T07:03:15.854Z,21.40
2018-08-23T07:07:14.165Z,21.50
2018-08-23T07:11:14.450Z,21.50
2018-08-23T07:15:08.626Z,21.60
2018-08-23T07:19:04.089Z,21.60
2018-08-23T07:22:58.135Z,21.70
2018-08-23T07:26:52.103Z,21.70
2018-08-23T07:30:46.203Z,21.80
2018-08-23T07:34:40.264Z,21.90
2018-08-23T07:38:34.252Z,21.90
2018-08-23T07:42:29.379Z,22.10
2018-08-23T07:46:23.547Z,22.10
2018-08-23T07:50:17.509Z,22.20
2018-08-23T07:54:15.692Z,22.30
2018-08-23T07:58:10.479Z,22.30
2018-08-23T08:02:04.731Z,22.30
2018-08-23T08:05:58.764Z,22.40
2018-08-23T08:09:52.763Z,22.50
2018-08-23T08:13:46.816Z,22.60
2018-08-23T08:17:41.475Z,22.70
2018-08-23T08:21:35.665Z,22.80
2018-08-23T08:25:29.555Z,22.90
2018-08-23T08:29:28.892Z,23.00
2018-08-23T08:33:22.931Z,23.00
2018-08-23T08:37:16.934Z,23.00
2018-08-23T08:41:10.905Z,23.10
2018-08-23T08:45:10.788Z,23.20
2018-08-23T08:49:04.761Z,23.30
2018-08-23T08:52:58.672Z,23.40
2018-08-23T08:56:53.229Z,23.50
2018-08-23T09:00:50.943Z,23.60
2018-08-23T09:04:44.874Z,23.80
2018-08-23T09:08:39.425Z,23.90
2018-08-23T09:12:33.835Z,23.90
2018-08-23T09:16:27.790Z,24.10
2018-08-23T09:20:21.865Z,24.20
2018-08-23T09:24:26.422Z,24.30
2018-08-23T09:28:20.488Z,24.30
2018-08-23T09:32:21.462Z,24.20
2018-08-23T09:36:15.533Z,24.20
2018-08-23T09:40:10.244Z,24.20
2018-08-23T09:44:04.195Z,24.40
2018-08-23T09:47:58.244Z,24.60
2018-08-23T09:51:52.188Z,25.00
2018-08-23T09:55:47.654Z,25.20
2018-08-23T09:59:43.241Z,25.40
2018-08-23T10:03:42.599Z,25.30
2018-08-23T10:07:42.016Z,25.20
2018-08-23T10:12:43.865Z,25.00
2018-08-23T10:16:43.396Z,25.00
2018-08-23T10:20:44.740Z,25.60
2018-08-23T10:24:38.912Z,26.00
2018-08-23T10:28:38.348Z,26.30
2018-08-23T10:32:32.430Z,26.40
2018-08-23T10:36:26.533Z,26.50
2018-08-23T10:40:21.262Z,26.50
2018-08-23T10:44:15.419Z,26.80
2018-08-23T10:48:14.907Z,26.70
2018-08-23T10:52:08.974Z,26.50
2018-08-23T10:56:03.150Z,26.40
2018-08-23T10:59:58.152Z,26.40
2018-08-23T11:03:52.231Z,26.60
2018-08-23T11:07:51.645Z,26.80
2018-08-23T11:11:45.694Z,27.20
2018-08-23T11:15:39.722Z,27.40
2018-08-23T11:19:39.230Z,27.10
2018-08-23T11:23:33.332Z,26.90
2018-08-23T11:27:27.450Z,26.90
2018-08-23T11:31:26.892Z,27.00
2018-08-23T11:35:21.426Z,27.30
2018-08-23T11:39:16.301Z,27.50
2018-08-23T11:43:10.417Z,27.50
2018-08-23T11:47:04.353Z,27.50
2018-08-23T11:50:58.481Z,27.30
2018-08-23T11:54:52.499Z,27.30
2018-08-23T11:58:46.566Z,27.50
2018-08-23T12:02:43.115Z,27.70
2018-08-23T12:06:37.320Z,27.60
2018-08-23T12:10:31.671Z,27.30
2018-08-23T12:14:25.999Z,27.20
2018-08-23T12:18:20.100Z,27.00
2018-08-23T12:22:14.091Z,27.00
2018-08-23T12:26:08.097Z,26.90
2018-08-23T12:30:04.737Z,27.00
2018-08-23T12:33:59.446Z,26.90
2018-08-23T12:38:00.788Z,26.80
2018-08-23T12:42:00.289Z,26.90
2018-08-23T12:46:00.075Z,26.80
2018-08-23T12:49:58.345Z,26.80
2018-08-23T12:53:52.380Z,26.80
2018-08-23T12:57:46.321Z,26.70
2018-08-23T13:01:40.395Z,26.70
2018-08-23T13:05:34.484Z,26.80
2018-08-23T13:09:28.552Z,26.80
2018-08-23T13:13:22.567Z,26.80
2018-08-23T13:17:16.674Z,26.90
2018-08-23T13:21:10.659Z,27.00
2018-08-23T13:25:04.726Z,27.10
2018-08-23T13:28:58.683Z,27.10
2018-08-23T13:32:52.795Z,27.00
2018-08-23T13:36:47.015Z,27.00
2018-08-23T13:40:41.465Z,26.90
2018-08-23T13:44:35.544Z,26.80
2018-08-23T13:48:29.729Z,26.80
2018-08-23T13:52:23.597Z,27.00
2018-08-23T13:56:17.580Z,27.00
2018-08-23T14:00:17.799Z,27.00
2018-08-23T14:04:11.833Z,27.00
2018-08-23T14:08:05.904Z,27.00
2018-08-23T14:11:59.903Z,27.00
2018-08-23T14:15:59.349Z,27.10
2018-08-23T14:19:53.528Z,27.10
2018-08-23T14:23:47.661Z,27.00
2018-08-23T14:27:42.032Z,26.90
2018-08-23T14:31:36.079Z,26.80
2018-08-23T14:35:30.048Z,26.70
2018-08-23T14:39:24.046Z,26.90
2018-08-23T14:43:18.181Z,26.90
2018-08-23T14:47:17.673Z,26.80
2018-08-23T14:51:13.792Z,26.80
2018-08-23T14:55:07.845Z,26.70
2018-08-23T14:59:01.777Z,26.60
2018-08-23T15:02:55.814Z,26.50
2018-08-23T15:06:49.874Z,26.50
2018-08-23T15:10:43.868Z,26.50
2018-08-23T15:14:38.154Z,26.50
2018-08-23T15:18:32.059Z,26.50
2018-08-23T15:22:26.188Z,26.50
2018-08-23T15:26:20.413Z,26.40
2018-08-23T15:30:14.333Z,26.30
2018-08-23T15:34:08.566Z,26.30
2018-08-23T15:38:02.551Z,26.20
2018-08-23T15:41:56.651Z,26.20
2018-08-23T15:45:50.741Z,26.20
2018-08-23T15:49:44.811Z,26.20
2018-08-23T15:53:38.762Z,26.10
2018-08-23T15:57:32.782Z,25.90
2018-08-23T16:01:26.799Z,25.90
2018-08-23T16:05:20.855Z,25.90
2018-08-23T16:09:14.856Z,26.10
2018-08-23T16:13:08.899Z,26.10
2018-08-23T16:17:08.206Z,25.90
2018-08-23T16:21:02.234Z,25.80
2018-08-23T16:24:56.355Z,25.80
2018-08-23T16:28:51.197Z,25.90
2018-08-23T16:32:45.175Z,25.80
2018-08-23T16:36:39.203Z,25.70
2018-08-23T16:40:33.354Z,25.60
2018-08-23T16:44:27.335Z,25.60
2018-08-23T16:48:21.343Z,25.40
2018-08-23T16:52:15.339Z,25.30
2018-08-23T16:56:09.290Z,25.30
2018-08-23T17:00:03.319Z,25.30
2018-08-23T17:03:58.010Z,25.20
2018-08-23T17:07:52.030Z,25.10
2018-08-23T17:11:46.043Z,25.00
2018-08-23T17:15:45.349Z,24.90
2018-08-23T17:19:39.397Z,24.80
2018-08-23T17:23:34.094Z,24.60
2018-08-23T17:27:28.163Z,24.50
2018-08-23T17:31:22.214Z,24.40
2018-08-23T17:35:16.214Z,24.20
2018-08-23T17:39:10.591Z,24.10
2018-08-23T17:43:04.570Z,24.00
2018-08-23T17:46:58.613Z,23.90
2018-08-23T17:50:52.606Z,23.80
2018-08-23T17:54:46.623Z,23.70
2018-08-23T17:58:41.002Z,23.60
2018-08-23T18:02:36.316Z,23.50
2018-08-23T18:06:30.383Z,23.50
2018-08-23T18:10:24.369Z,23.40
2018-08-23T18:14:18.716Z,23.30
2018-08-23T18:18:12.792Z,23.20
2018-08-23T18:22:06.904Z,23.10
2018-08-23T18:26:01.167Z,23.10
2018-08-23T18:29:55.236Z,23.00
2018-08-23T18:33:49.339Z,22.90
2018-08-23T18:37:43.391Z,22.80
2018-08-23T18:41:37.785Z,22.70
2018-08-23T18:45:31.797Z,22.60
2018-08-23T18:49:25.811Z,22.50
2018-08-23T18:53:20.069Z,22.40
2018-08-23T18:57:14.011Z,22.30
2018-08-23T19:01:08.075Z,22.30
2018-08-23T19:05:02.009Z,22.20
2018-08-23T19:08:56.051Z,22.10
2018-08-23T19:12:50.139Z,22.10
2018-08-23T19:16:49.485Z,22.10
2018-08-23T19:20:43.449Z,22.10
2018-08-23T19:24:37.465Z,22.10
2018-08-23T19:28:31.587Z,22.10
2018-08-23T19:32:25.546Z,22.10
2018-08-23T19:36:19.554Z,21.90
2018-08-23T19:40:13.528Z,21.80
2018-08-23T19:44:07.675Z,21.80
2018-08-23T19:48:01.760Z,21.70
2018-08-23T19:51:55.962Z,21.60
2018-08-23T19:55:49.931Z,21.50
2018-08-23T19:59:43.927Z,21.60
2018-08-23T20:03:37.945Z,21.60
2018-08-23T20:07:31.877Z,21.50
2018-08-23T20:11:25.921Z,21.40
2018-08-23T20:15:25.882Z,21.30
2018-08-23T20:19:20.343Z,21.30
2018-08-23T20:23:14.274Z,21.30
2018-08-23T20:27:08.222Z,21.20
2018-08-23T20:31:02.276Z,21.30
2018-08-23T20:34:56.311Z,21.30
2018-08-23T20:38:50.379Z,21.20
2018-08-23T20:42:44.422Z,21.20
2018-08-23T20:46:38.947Z,21.20
2018-08-23T20:50:33.468Z,21.20
2018-08-23T20:54:27.430Z,21.10
2018-08-23T20:58:21.513Z,21.10
2018-08-23T21:02:15.580Z,21.10
2018-08-23T21:06:09.592Z,21.00
2018-08-23T21:10:03.793Z,21.00
2018-08-23T21:13:57.655Z,20.90
2018-08-23T21:17:51.626Z,20.80
2018-08-23T21:21:46.635Z,20.80
2018-08-23T21:25:40.749Z,20.70
2018-08-23T21:29:34.819Z,20.60
2018-08-23T21:33:28.879Z,20.70
2018-08-23T21:37:22.804Z,20.70
2018-08-23T21:41:16.775Z,20.70
2018-08-23T21:45:10.883Z,20.70
2018-08-23T21:49:04.871Z,20.60
2018-08-23T21:52:58.860Z,20.60
2018-08-23T21:56:52.812Z,20.50
2018-08-23T22:00:52.119Z,20.40
2018-08-23T22:04:51.673Z,20.40
2018-08-23T22:08:45.700Z,20.40
2018-08-23T22:12:39.648Z,20.40
2018-08-23T22:16:33.769Z,20.40
2018-08-23T22:20:27.702Z,20.40
2018-08-23T22:24:21.674Z,20.40
2018-08-23T22:28:15.650Z,20.50
2018-08-23T22:32:09.837Z,20.60
2018-08-23T22:36:03.894Z,20.60
2018-08-23T22:39:57.876Z,20.70
2018-08-23T22:43:51.848Z,20.70
2018-08-23T22:47:45.893Z,20.70
2018-08-23T22:51:39.906Z,20.80
2018-08-23T22:55:33.855Z,20.80
2018-08-23T22:59:27.827Z,20.90
2018-08-23T23:03:27.235Z,20.80
2018-08-23T23:07:21.251Z,20.80
2018-08-23T23:11:15.254Z,20.90
2018-08-23T23:15:14.687Z,21.00
2018-08-23T23:19:08.646Z,21.00
2018-08-23T23:23:02.887Z,21.10
2018-08-23T23:26:57.265Z,21.10
2018-08-23T23:30:51.272Z,21.00
2018-08-23T23:34:45.246Z,20.70
2018-08-23T23:38:39.218Z,20.60
2018-08-23T23:42:33.244Z,20.50
2018-08-23T23:46:27.202Z,20.40
2018-08-23T23:50:21.252Z,20.40
